createdAt,value
2019-04-21T00:11:40.839Z,0.00
2019-04-21T00:12:16.974Z,0.00
2019-04-21T00:13:12.190Z,0.00
2019-04-21T00:14:06.009Z,0.00
2019-04-21T00:15:07.282Z,0.00
2019-04-21T00:16:02.405Z,0.00
2019-04-21T00:17:02.794Z,0.00
2019-04-21T00:18:00.627Z,0.00
2019-04-21T00:19:03.356Z,0.00
2019-04-21T00:20:05.559Z,0.00
2019-04-21T00:20:58.585Z,0.00
2019-04-21T00:22:05.713Z,0.00
2019-04-21T00:23:15.298Z,0.00
2019-04-21T00:24:08.813Z,0.00
2019-04-21T00:25:11.808Z,0.00
2019-04-21T00:26:09.040Z,0.00
2019-04-21T00:27:12.758Z,0.00
2019-04-21T00:28:16.928Z,0.00
2019-04-21T00:29:16.934Z,0.00
2019-04-21T00:30:17.332Z,0.00
2019-04-21T00:31:12.627Z,0.00
2019-04-21T00:32:11.521Z,0.00
2019-04-21T00:33:05.247Z,0.00
2019-04-21T00:33:56.762Z,0.00
2019-04-21T00:35:03.012Z,0.00
2019-04-21T00:36:05.065Z,0.00
2019-04-21T00:37:08.322Z,0.00
2019-04-21T00:38:22.739Z,0.00
2019-04-21T00:40:17.223Z,0.00
2019-04-21T00:41:19.064Z,0.00
2019-04-21T00:42:14.350Z,0.00
2019-04-21T00:43:14.761Z,0.00
2019-04-21T00:44:10.989Z,0.00
2019-04-21T00:45:11.939Z,0.00
2019-04-21T00:46:04.748Z,0.00
2019-04-21T00:47:17.517Z,0.00
2019-04-21T00:48:19.183Z,0.00
2019-04-21T00:49:10.412Z,0.00
2019-04-21T00:50:17.965Z,0.00
2019-04-21T00:51:42.073Z,0.00
2019-04-21T00:52:28.925Z,0.00
2019-04-21T00:53:23.120Z,0.00
2019-04-21T00:54:24.664Z,0.00
2019-04-21T00:56:21.251Z,0.00
2019-04-21T00:58:23.453Z,0.00
2019-04-21T00:59:19.315Z,0.00
2019-04-21T01:00:18.793Z,0.00
2019-04-21T01:01:15.126Z,0.00
2019-04-21T01:02:15.676Z,0.00
2019-04-21T01:03:20.690Z,0.00
2019-04-21T01:04:15.607Z,0.00
2019-04-21T01:05:35.282Z,0.00
2019-04-21T01:06:22.411Z,0.00
2019-04-21T01:07:22.020Z,0.00
2019-04-21T01:08:13.330Z,0.00
2019-04-21T01:09:13.524Z,0.00
2019-04-21T01:10:12.204Z,0.00
2019-04-21T01:11:19.459Z,0.00
2019-04-21T01:12:19.493Z,0.00
2019-04-21T01:13:23.529Z,0.00
2019-04-21T01:14:22.246Z,0.00
2019-04-21T01:15:27.678Z,0.00
2019-04-21T01:16:21.008Z,0.00
2019-04-21T01:17:19.207Z,0.00
2019-04-21T01:18:16.534Z,0.00
2019-04-21T01:19:18.313Z,0.00
2019-04-21T01:20:12.167Z,0.00
2019-04-21T01:20:57.071Z,0.00
2019-04-21T01:21:57.102Z,0.00
2019-04-21T01:22:57.819Z,0.00
2019-04-21T01:24:07.884Z,0.00
2019-04-21T01:25:08.000Z,0.00
2019-04-21T01:26:11.987Z,0.00
2019-04-21T01:27:06.321Z,0.00
2019-04-21T01:28:15.180Z,0.00
2019-04-21T01:29:12.019Z,0.00
2019-04-21T01:30:19.232Z,0.00
2019-04-21T01:31:17.328Z,0.00
2019-04-21T01:32:25.472Z,0.00
2019-04-21T01:33:24.689Z,0.00
2019-04-21T01:34:14.945Z,0.00
2019-04-21T01:35:16.457Z,0.00
2019-04-21T01:36:14.566Z,0.00
2019-04-21T01:37:14.500Z,0.00
2019-04-21T01:38:21.628Z,0.00
2019-04-21T01:39:20.008Z,0.00
2019-04-21T01:40:24.169Z,0.00
2019-04-21T01:41:21.554Z,0.00
2019-04-21T01:42:15.848Z,0.00
2019-04-21T01:43:17.585Z,0.00
2019-04-21T01:44:25.634Z,0.00
2019-04-21T01:45:20.047Z,0.00
2019-04-21T01:46:13.932Z,0.00
2019-04-21T01:47:11.827Z,0.00
2019-04-21T01:48:12.908Z,0.00
2019-04-21T01:49:10.530Z,0.00
2019-04-21T01:50:07.087Z,0.00
2019-04-21T01:51:16.061Z,0.00
2019-04-21T01:52:34.874Z,0.00
2019-04-21T01:53:24.806Z,0.00
2019-04-21T01:54:21.964Z,0.00
2019-04-21T01:55:18.379Z,0.00
2019-04-21T01:56:17.211Z,0.00
2019-04-21T01:57:17.641Z,0.00
2019-04-21T01:58:11.541Z,0.00
2019-04-21T01:59:08.299Z,0.00
2019-04-21T02:00:12.268Z,0.00
2019-04-21T02:01:16.038Z,0.00
2019-04-21T02:02:18.413Z,0.00
2019-04-21T02:03:34.409Z,0.00
2019-04-21T02:04:27.401Z,0.00
2019-04-21T02:05:26.494Z,0.00
2019-04-21T02:06:22.564Z,0.00
2019-04-21T02:07:21.853Z,0.00
2019-04-21T02:08:15.524Z,0.00
2019-04-21T02:09:14.872Z,0.00
2019-04-21T02:10:32.153Z,0.00
2019-04-21T02:11:23.163Z,0.00
2019-04-21T02:12:20.990Z,0.00
2019-04-21T02:13:17.150Z,0.00
2019-04-21T02:14:26.020Z,0.00
2019-04-21T02:15:23.716Z,0.00
2019-04-21T02:16:21.556Z,0.00
2019-04-21T02:17:20.406Z,0.00
2019-04-21T02:18:17.065Z,0.00
2019-04-21T02:19:19.798Z,0.00
2019-04-21T02:20:14.713Z,0.00
2019-04-21T02:21:09.483Z,0.00
2019-04-21T02:22:19.262Z,0.00
2019-04-21T02:23:31.477Z,0.00
2019-04-21T02:24:30.113Z,0.00
2019-04-21T02:25:22.849Z,0.00
2019-04-21T02:26:23.140Z,0.00
2019-04-21T02:27:21.857Z,0.00
2019-04-21T02:28:29.755Z,0.00
2019-04-21T02:29:23.961Z,0.00
2019-04-21T02:30:27.626Z,0.00
2019-04-21T02:31:40.477Z,0.00
2019-04-21T02:32:39.377Z,0.00
2019-04-21T02:39:30.433Z,0.00
2019-04-21T02:40:35.824Z,0.00
2019-04-21T02:41:33.012Z,0.00
2019-04-21T02:42:39.817Z,0.00
2019-04-21T02:43:25.196Z,0.00
2019-04-21T02:44:39.238Z,0.00
2019-04-21T02:49:45.172Z,0.00
2019-04-21T02:50:31.507Z,0.00
2019-04-21T02:51:39.648Z,0.00
2019-04-21T02:52:39.259Z,0.00
2019-04-21T02:53:53.619Z,0.00
2019-04-21T02:57:34.636Z,0.00
2019-04-21T02:58:36.297Z,0.00
2019-04-21T02:59:35.836Z,0.00
2019-04-21T03:00:32.560Z,0.00
2019-04-21T03:01:43.918Z,0.00
2019-04-21T03:03:36.473Z,0.00
2019-04-21T03:04:36.210Z,0.00
2019-04-21T03:05:41.709Z,0.00
2019-04-21T03:06:29.525Z,0.00
2019-04-21T03:07:31.887Z,0.00
2019-04-21T03:08:44.775Z,0.00
2019-04-21T03:09:32.179Z,0.00
2019-04-21T03:10:38.255Z,0.00
2019-04-21T03:11:52.365Z,0.00
2019-04-21T03:12:31.997Z,0.00
2019-04-21T03:13:52.663Z,0.00
2019-04-21T03:16:25.888Z,0.00
2019-04-21T03:18:34.166Z,0.00
2019-04-21T03:19:48.183Z,0.00
2019-04-21T03:20:35.785Z,0.00
2019-04-21T03:21:29.109Z,0.00
2019-04-21T03:22:31.727Z,0.00
2019-04-21T03:23:36.657Z,0.00
2019-04-21T03:24:49.043Z,0.00
2019-04-21T03:26:36.373Z,0.00
2019-04-21T03:27:44.526Z,0.00
2019-04-21T03:28:49.488Z,0.00
2019-04-21T03:31:01.816Z,0.00
2019-04-21T03:31:50.405Z,0.00
2019-04-21T03:37:32.993Z,0.00
2019-04-21T03:39:36.670Z,0.00
2019-04-21T03:40:28.580Z,0.00
2019-04-21T03:42:34.173Z,0.00
2019-04-21T03:44:33.075Z,0.00
2019-04-21T03:46:35.752Z,0.00
2019-04-21T03:47:29.806Z,0.00
2019-04-21T03:51:38.097Z,0.00
2019-04-21T03:52:38.773Z,0.00
2019-04-21T03:53:31.470Z,0.00
2019-04-21T03:54:37.290Z,0.00
2019-04-21T03:57:06.500Z,0.00
2019-04-21T03:57:48.730Z,0.00
2019-04-21T03:59:24.674Z,0.00
2019-04-21T04:01:28.488Z,0.00
2019-04-21T04:02:52.369Z,0.00
2019-04-21T04:06:39.080Z,0.00
2019-04-21T04:10:34.400Z,0.00
2019-04-21T04:11:38.146Z,0.00
2019-04-21T04:12:35.085Z,0.00
2019-04-21T04:14:42.486Z,0.00
2019-04-21T04:15:39.029Z,0.00
2019-04-21T04:19:39.381Z,0.00
2019-04-21T04:23:42.402Z,5.63
2019-04-21T04:24:55.548Z,5.63
2019-04-21T04:26:43.268Z,5.63
2019-04-21T04:27:49.476Z,5.63
2019-04-21T04:30:45.980Z,11.25
2019-04-21T04:34:40.511Z,16.88
2019-04-21T04:35:46.152Z,16.88
2019-04-21T04:36:53.250Z,16.88
2019-04-21T04:37:36.752Z,16.88
2019-04-21T04:38:39.412Z,22.50
2019-04-21T04:39:43.026Z,22.50
2019-04-21T04:40:34.686Z,22.50
2019-04-21T04:41:55.055Z,22.50
2019-04-21T04:42:41.117Z,28.13
2019-04-21T04:43:37.091Z,28.13
2019-04-21T04:44:51.542Z,28.13
2019-04-21T04:45:48.372Z,33.75
2019-04-21T04:46:44.174Z,33.75
2019-04-21T04:47:33.419Z,33.75
2019-04-21T04:48:35.223Z,39.38
2019-04-21T04:49:46.325Z,39.38
2019-04-21T04:50:39.225Z,39.38
2019-04-21T04:51:52.682Z,45.00
2019-04-21T04:52:38.337Z,45.00
2019-04-21T04:53:42.677Z,50.63
2019-04-21T04:55:33.923Z,50.63
2019-04-21T04:56:38.839Z,56.25
2019-04-21T04:59:42.595Z,56.25
2019-04-21T05:03:44.018Z,67.50
2019-04-21T05:05:48.711Z,73.13
2019-04-21T05:06:42.662Z,73.13
2019-04-21T05:08:58.912Z,78.75
2019-04-21T05:09:33.983Z,78.75
2019-04-21T05:10:47.559Z,84.38
2019-04-21T05:12:29.549Z,90.00
2019-04-21T05:13:34.851Z,90.00
2019-04-21T05:14:29.832Z,95.63
2019-04-21T05:15:23.695Z,95.63
2019-04-21T05:17:38.183Z,95.63
2019-04-21T05:18:35.152Z,101.25
2019-04-21T05:19:30.499Z,101.25
2019-04-21T05:20:23.617Z,101.25
2019-04-21T05:21:36.315Z,106.88
2019-04-21T05:23:28.763Z,118.13
2019-04-21T05:24:25.367Z,118.13
2019-04-21T05:25:19.617Z,123.75
2019-04-21T05:26:20.297Z,123.75
2019-04-21T05:27:23.422Z,123.75
2019-04-21T05:28:16.427Z,129.38
2019-04-21T05:29:15.799Z,129.38
2019-04-21T05:30:38.643Z,129.38
2019-04-21T05:31:28.488Z,135.00
2019-04-21T05:32:29.798Z,135.00
2019-04-21T05:33:30.668Z,140.63
2019-04-21T05:34:27.599Z,140.63
2019-04-21T05:35:26.660Z,140.63
2019-04-21T05:36:30.867Z,146.25
2019-04-21T05:37:25.771Z,146.25
2019-04-21T05:38:21.682Z,146.25
2019-04-21T05:39:21.648Z,151.88
2019-04-21T05:40:20.038Z,151.88
2019-04-21T05:41:15.515Z,157.50
2019-04-21T05:42:23.218Z,157.50
2019-04-21T05:43:28.343Z,157.50
2019-04-21T05:44:39.277Z,163.13
2019-04-21T05:45:27.019Z,163.13
2019-04-21T05:46:25.383Z,163.13
2019-04-21T05:48:39.722Z,168.75
2019-04-21T05:49:21.996Z,174.38
2019-04-21T05:50:23.873Z,174.38
2019-04-21T05:51:27.155Z,174.38
2019-04-21T05:52:23.209Z,174.38
2019-04-21T05:53:31.386Z,174.38
2019-04-21T05:54:29.697Z,174.38
2019-04-21T05:55:34.330Z,174.38
2019-04-21T05:56:32.384Z,180.00
2019-04-21T05:57:28.857Z,180.00
2019-04-21T05:58:30.070Z,180.00
2019-04-21T05:59:29.130Z,180.00
2019-04-21T06:00:39.424Z,180.00
2019-04-21T06:01:33.046Z,174.38
2019-04-21T06:02:48.108Z,174.38
2019-04-21T06:03:30.660Z,174.38
2019-04-21T06:04:38.621Z,174.38
2019-04-21T06:05:37.784Z,174.38
2019-04-21T06:07:28.757Z,180.00
2019-04-21T06:08:28.658Z,180.00
2019-04-21T06:09:32.063Z,180.00
2019-04-21T06:10:31.473Z,180.00
2019-04-21T06:12:28.596Z,180.00
2019-04-21T06:13:38.204Z,180.00
2019-04-21T06:14:30.477Z,180.00
2019-04-21T06:15:29.593Z,180.00
2019-04-21T06:16:40.279Z,180.00
2019-04-21T06:17:36.170Z,180.00
2019-04-21T06:18:34.606Z,180.00
2019-04-21T06:19:36.666Z,180.00
2019-04-21T06:20:27.098Z,180.00
2019-04-21T06:21:28.030Z,180.00
2019-04-21T06:22:23.935Z,180.00
2019-04-21T06:23:30.281Z,180.00
2019-04-21T06:24:40.734Z,180.00
2019-04-21T06:28:33.585Z,185.63
2019-04-21T06:29:29.841Z,180.00
2019-04-21T06:30:33.395Z,180.00
2019-04-21T06:31:57.391Z,180.00
2019-04-21T06:33:44.801Z,185.63
2019-04-21T06:34:39.780Z,185.63
2019-04-21T06:35:42.905Z,185.63
2019-04-21T06:36:39.651Z,185.63
2019-04-21T06:38:43.218Z,180.00
2019-04-21T06:39:30.486Z,174.38
2019-04-21T06:40:36.162Z,180.00
2019-04-21T06:41:32.568Z,174.38
2019-04-21T06:42:29.653Z,168.75
2019-04-21T06:43:37.713Z,174.38
2019-04-21T06:44:32.027Z,174.38
2019-04-21T06:45:34.951Z,174.38
2019-04-21T06:46:39.273Z,163.13
2019-04-21T06:47:37.980Z,157.50
2019-04-21T06:48:32.900Z,157.50
2019-04-21T06:49:27.827Z,151.88
2019-04-21T06:50:35.251Z,151.88
2019-04-21T06:53:39.697Z,151.88
2019-04-21T06:54:33.868Z,151.88
2019-04-21T06:55:33.950Z,151.88
2019-04-21T06:56:39.700Z,151.88
2019-04-21T06:57:45.730Z,151.88
2019-04-21T06:58:25.015Z,146.25
2019-04-21T06:59:29.713Z,151.88
2019-04-21T07:00:25.650Z,151.88
2019-04-21T07:01:34.510Z,146.25
2019-04-21T07:02:43.796Z,151.88
2019-04-21T07:03:48.623Z,146.25
2019-04-21T07:04:30.188Z,140.63
2019-04-21T07:05:33.623Z,146.25
2019-04-21T07:06:35.635Z,146.25
2019-04-21T07:07:32.986Z,146.25
2019-04-21T07:08:34.549Z,151.88
2019-04-21T07:09:31.317Z,151.88
2019-04-21T07:10:48.030Z,157.50
2019-04-21T07:11:27.118Z,157.50
2019-04-21T07:12:27.536Z,157.50
2019-04-21T07:13:26.367Z,157.50
2019-04-21T07:14:34.623Z,163.13
2019-04-21T07:15:32.547Z,157.50
2019-04-21T07:16:34.708Z,163.13
2019-04-21T07:17:28.344Z,163.13
2019-04-21T07:18:38.779Z,168.75
2019-04-21T07:19:34.885Z,168.75
2019-04-21T07:20:28.244Z,180.00
2019-04-21T07:21:30.132Z,185.63
2019-04-21T07:22:33.713Z,191.25
2019-04-21T07:23:31.634Z,196.88
2019-04-21T07:24:32.026Z,196.88
2019-04-21T07:25:33.093Z,196.88
2019-04-21T07:26:32.849Z,191.25
2019-04-21T07:27:43.541Z,196.88
2019-04-21T07:28:32.220Z,196.88
2019-04-21T07:29:34.553Z,202.50
2019-04-21T07:30:38.692Z,202.50
2019-04-21T07:31:31.971Z,202.50
2019-04-21T07:32:49.409Z,208.13
2019-04-21T07:33:49.542Z,208.13
2019-04-21T07:34:36.398Z,213.75
2019-04-21T07:35:32.199Z,213.75
2019-04-21T07:36:41.154Z,213.75
2019-04-21T07:37:29.870Z,213.75
2019-04-21T07:38:31.407Z,219.38
2019-04-21T07:39:28.801Z,219.38
2019-04-21T07:40:24.875Z,219.38
2019-04-21T07:41:22.745Z,225.00
2019-04-21T07:42:23.791Z,225.00
2019-04-21T07:43:25.955Z,225.00
2019-04-21T07:44:22.851Z,230.63
2019-04-21T07:45:24.739Z,230.63
2019-04-21T07:46:24.792Z,241.88
2019-04-21T07:47:27.041Z,241.88
2019-04-21T07:48:34.063Z,241.88
2019-04-21T07:49:32.877Z,241.88
2019-04-21T07:50:31.680Z,241.88
2019-04-21T07:51:32.220Z,241.88
2019-04-21T07:53:36.785Z,241.88
2019-04-21T07:54:48.657Z,241.88
2019-04-21T07:55:37.388Z,247.50
2019-04-21T07:56:19.121Z,247.50
2019-04-21T07:57:23.455Z,247.50
2019-04-21T07:58:26.217Z,253.13
2019-04-21T07:59:41.133Z,253.13
2019-04-21T08:01:30.534Z,258.75
2019-04-21T08:02:29.415Z,258.75
2019-04-21T08:04:52.674Z,264.38
2019-04-21T08:05:39.220Z,264.38
2019-04-21T08:06:33.669Z,264.38
2019-04-21T08:07:37.885Z,270.00
2019-04-21T08:08:31.444Z,270.00
2019-04-21T08:09:26.175Z,270.00
2019-04-21T08:10:28.542Z,275.63
2019-04-21T08:12:24.276Z,281.25
2019-04-21T08:13:34.271Z,281.25
2019-04-21T08:14:28.583Z,281.25
2019-04-21T08:15:51.040Z,286.88
2019-04-21T08:16:35.019Z,286.88
2019-04-21T08:17:31.942Z,292.50
2019-04-21T08:18:35.031Z,298.13
2019-04-21T08:19:32.146Z,292.50
2019-04-21T08:20:28.487Z,292.50
2019-04-21T08:21:35.625Z,292.50
2019-04-21T08:22:32.214Z,292.50
2019-04-21T08:23:31.744Z,292.50
2019-04-21T08:24:32.277Z,298.13
2019-04-21T08:25:40.341Z,298.13
2019-04-21T08:26:34.532Z,303.75
2019-04-21T08:27:36.485Z,303.75
2019-04-21T08:28:32.090Z,303.75
2019-04-21T08:30:33.097Z,309.38
2019-04-21T08:31:46.396Z,309.38
2019-04-21T08:32:36.211Z,315.00
2019-04-21T08:33:58.400Z,315.00
2019-04-21T08:34:34.837Z,320.63
2019-04-21T08:36:03.392Z,326.25
2019-04-21T08:36:28.166Z,320.63
2019-04-21T08:37:34.198Z,331.88
2019-04-21T08:38:27.691Z,326.25
2019-04-21T08:39:37.337Z,331.88
2019-04-21T08:40:40.828Z,331.88
2019-04-21T08:41:31.340Z,331.88
2019-04-21T08:42:31.178Z,337.50
2019-04-21T08:43:35.513Z,337.50
2019-04-21T08:44:33.410Z,337.50
2019-04-21T08:45:35.371Z,343.13
2019-04-21T08:46:31.115Z,343.13
2019-04-21T08:47:33.471Z,343.13
2019-04-21T08:48:29.046Z,343.13
2019-04-21T08:49:33.671Z,343.13
2019-04-21T08:52:49.042Z,348.75
2019-04-21T08:53:35.468Z,354.38
2019-04-21T08:54:47.089Z,354.38
2019-04-21T08:56:29.164Z,360.00
2019-04-21T08:57:41.914Z,360.00
2019-04-21T08:58:34.489Z,365.63
2019-04-21T08:59:30.913Z,365.63
2019-04-21T09:00:36.842Z,371.25
2019-04-21T09:01:42.728Z,371.25
2019-04-21T09:02:35.763Z,371.25
2019-04-21T09:03:28.586Z,371.25
2019-04-21T09:04:29.003Z,376.88
2019-04-21T09:05:34.227Z,382.50
2019-04-21T09:06:51.244Z,382.50
2019-04-21T09:07:33.092Z,382.50
2019-04-21T09:08:31.716Z,382.50
2019-04-21T09:09:28.776Z,388.13
2019-04-21T09:10:31.488Z,388.13
2019-04-21T09:11:28.741Z,393.75
2019-04-21T09:12:33.301Z,393.75
2019-04-21T09:13:29.703Z,399.38
2019-04-21T09:14:31.023Z,399.38
2019-04-21T09:15:31.050Z,405.00
2019-04-21T09:16:24.961Z,405.00
2019-04-21T09:17:26.320Z,405.00
2019-04-21T09:18:24.187Z,410.63
2019-04-21T09:19:38.704Z,410.63
2019-04-21T09:20:33.797Z,416.25
2019-04-21T09:22:35.880Z,421.88
2019-04-21T09:23:26.176Z,421.88
2019-04-21T09:24:29.330Z,427.50
2019-04-21T09:25:33.447Z,433.13
2019-04-21T09:27:27.391Z,438.75
2019-04-21T09:28:27.252Z,444.38
2019-04-21T09:29:21.741Z,444.38
2019-04-21T09:30:12.947Z,450.00
2019-04-21T09:31:12.411Z,455.63
2019-04-21T09:32:19.674Z,461.25
2019-04-21T09:33:12.304Z,461.25
2019-04-21T09:34:22.005Z,466.88
2019-04-21T09:35:14.867Z,472.50
2019-04-21T09:36:16.329Z,483.75
2019-04-21T09:37:26.855Z,511.88
2019-04-21T09:38:23.605Z,838.13
2019-04-21T09:39:16.616Z,1569.38
2019-04-21T09:40:15.201Z,2176.88
2019-04-21T09:41:17.520Z,2379.38
2019-04-21T09:42:13.841Z,2424.38
2019-04-21T09:43:18.703Z,2295.00
2019-04-21T09:44:18.084Z,2261.25
2019-04-21T09:45:14.300Z,2328.75
2019-04-21T09:46:16.414Z,2176.88
2019-04-21T09:47:15.826Z,2216.25
2019-04-21T09:48:18.592Z,2373.75
2019-04-21T09:50:13.524Z,2452.50
2019-04-21T09:51:13.235Z,2688.75
2019-04-21T09:53:22.762Z,2671.88
2019-04-21T09:54:20.686Z,2739.38
2019-04-21T09:55:18.940Z,2610.00
2019-04-21T09:56:17.833Z,2621.25
2019-04-21T09:57:23.551Z,2722.50
2019-04-21T09:58:21.710Z,2688.75
2019-04-21T09:59:20.562Z,2745.00
2019-04-21T10:00:20.602Z,2694.38
2019-04-21T10:01:21.600Z,2475.00
2019-04-21T10:02:18.203Z,2401.88
2019-04-21T10:03:15.768Z,2435.63
2019-04-21T10:04:14.279Z,2401.88
2019-04-21T10:05:14.558Z,2272.50
2019-04-21T10:06:15.475Z,2508.75
2019-04-21T10:07:24.654Z,2559.38
2019-04-21T10:08:14.552Z,2503.13
2019-04-21T10:09:17.323Z,2508.75
2019-04-21T10:10:14.904Z,2565.00
2019-04-21T10:11:14.213Z,2491.88
2019-04-21T10:12:14.305Z,2553.75
2019-04-21T10:13:15.029Z,2565.00
2019-04-21T10:14:14.464Z,2576.25
2019-04-21T10:15:14.239Z,2671.88
2019-04-21T10:16:15.145Z,2671.88
2019-04-21T10:17:15.111Z,2317.50
2019-04-21T10:18:15.140Z,2373.75
2019-04-21T10:19:15.310Z,2362.50
2019-04-21T10:20:14.351Z,2311.88
2019-04-21T10:21:15.446Z,2458.13
2019-04-21T10:22:14.848Z,2452.50
2019-04-21T10:23:15.545Z,2373.75
2019-04-21T10:24:15.851Z,2480.63
2019-04-21T10:25:14.606Z,2576.25
2019-04-21T10:26:14.667Z,2643.75
2019-04-21T10:27:17.346Z,2514.38
2019-04-21T10:28:15.034Z,2548.13
2019-04-21T10:29:22.101Z,2677.50
2019-04-21T10:30:16.050Z,2621.25
2019-04-21T10:31:14.893Z,2604.38
2019-04-21T10:32:15.486Z,2632.50
2019-04-21T10:33:14.998Z,2649.38
2019-04-21T10:34:15.065Z,2525.63
2019-04-21T10:35:17.718Z,2536.88
2019-04-21T10:36:15.250Z,2520.00
2019-04-21T10:37:16.563Z,2520.00
2019-04-21T10:38:26.107Z,2559.38
2019-04-21T10:40:15.850Z,2598.75
2019-04-21T10:41:15.393Z,2441.25
2019-04-21T10:42:15.566Z,2463.75
2019-04-21T10:43:19.100Z,2463.75
2019-04-21T10:44:16.913Z,2559.38
2019-04-21T10:45:16.927Z,2593.13
2019-04-21T10:46:16.918Z,2497.50
2019-04-21T10:47:16.607Z,2334.38
2019-04-21T10:48:16.837Z,2137.50
2019-04-21T10:49:16.871Z,2165.63
2019-04-21T10:50:16.318Z,2362.50
2019-04-21T10:51:17.010Z,2379.38
2019-04-21T10:52:17.113Z,2334.38
2019-04-21T10:53:16.724Z,2514.38
2019-04-21T10:54:16.050Z,2626.88
2019-04-21T10:55:32.357Z,2655.00
2019-04-21T10:56:25.109Z,2677.50
2019-04-21T10:57:16.720Z,2565.00
2019-04-21T10:58:16.316Z,2581.88
2019-04-21T10:59:16.357Z,2581.88
2019-04-21T11:00:17.546Z,2671.88
2019-04-21T11:01:16.772Z,2711.25
2019-04-21T11:02:17.061Z,2570.63
2019-04-21T11:03:17.126Z,2587.50
2019-04-21T11:04:21.865Z,2626.88
2019-04-21T11:05:17.028Z,2626.88
2019-04-21T11:06:16.918Z,2626.88
2019-04-21T11:07:19.584Z,2666.25
2019-04-21T11:08:23.637Z,2756.25
2019-04-21T11:09:17.871Z,2829.38
2019-04-21T11:10:18.182Z,2671.88
2019-04-21T11:11:16.965Z,2666.25
2019-04-21T11:12:17.583Z,2739.38
2019-04-21T11:13:17.028Z,3031.88
2019-04-21T11:14:17.799Z,3048.75
2019-04-21T11:15:17.195Z,2970.00
2019-04-21T11:16:17.345Z,2868.75
2019-04-21T11:17:18.207Z,2908.13
2019-04-21T11:18:17.725Z,2902.50
2019-04-21T11:19:17.962Z,2750.63
2019-04-21T11:20:17.391Z,2846.25
2019-04-21T11:21:18.657Z,2919.38
2019-04-21T11:22:18.884Z,3178.13
2019-04-21T11:24:18.083Z,3223.13
2019-04-21T11:29:26.381Z,2413.13
2019-04-21T11:30:25.674Z,2559.38
2019-04-21T11:35:01.261Z,2581.88
2019-04-21T11:45:26.712Z,2857.50
2019-04-21T11:46:26.901Z,2120.63
2019-04-21T11:49:30.247Z,2694.38
2019-04-21T11:50:26.999Z,2373.75
2019-04-21T11:54:27.179Z,2514.38
2019-04-21T11:55:34.348Z,2435.63
2019-04-21T11:57:32.773Z,2205.00
2019-04-21T11:58:27.847Z,2041.88
2019-04-21T11:59:27.954Z,2070.00
2019-04-21T12:01:15.874Z,2013.75
2019-04-21T12:02:15.242Z,1468.13
2019-04-21T12:03:16.908Z,1423.13
2019-04-21T12:04:16.084Z,1563.75
2019-04-21T12:05:15.297Z,1631.25
2019-04-21T12:06:15.513Z,1642.50
2019-04-21T12:07:15.553Z,1721.25
2019-04-21T12:08:23.086Z,1839.38
2019-04-21T12:09:16.793Z,1951.88
2019-04-21T12:10:15.604Z,2092.50
2019-04-21T12:11:15.973Z,2373.75
2019-04-21T12:12:16.945Z,2385.00
2019-04-21T12:13:16.305Z,2458.13
2019-04-21T12:14:16.277Z,2430.00
2019-04-21T12:15:16.704Z,2576.25
2019-04-21T12:16:16.980Z,2716.88
2019-04-21T12:17:16.372Z,2390.63
2019-04-21T12:18:15.921Z,2233.13
2019-04-21T12:19:16.695Z,2323.13
2019-04-21T12:20:16.769Z,2480.63
2019-04-21T12:21:16.069Z,2610.00
2019-04-21T12:22:21.664Z,2598.75
2019-04-21T12:23:16.378Z,2716.88
2019-04-21T12:24:17.341Z,2480.63
2019-04-21T12:25:16.270Z,2649.38
2019-04-21T12:26:16.322Z,2570.63
2019-04-21T12:27:16.373Z,2520.00
2019-04-21T12:28:17.422Z,2520.00
2019-04-21T12:29:16.729Z,2362.50
2019-04-21T12:30:17.720Z,2390.63
2019-04-21T12:31:17.610Z,2424.38
2019-04-21T12:32:17.887Z,2351.25
2019-04-21T12:33:18.148Z,2058.75
2019-04-21T12:34:18.122Z,1766.25
2019-04-21T12:35:17.691Z,1665.00
2019-04-21T12:36:17.891Z,1518.75
2019-04-21T12:37:17.103Z,1468.13
2019-04-21T12:38:29.340Z,1535.63
2019-04-21T12:39:16.987Z,1861.88
2019-04-21T12:40:17.037Z,2064.38
2019-04-21T12:41:18.282Z,2126.25
2019-04-21T12:42:18.325Z,2272.50
2019-04-21T12:43:17.196Z,2250.00
2019-04-21T12:44:18.437Z,2334.38
2019-04-21T12:45:17.531Z,2458.13
2019-04-21T12:46:18.101Z,2655.00
2019-04-21T12:47:17.388Z,2115.00
2019-04-21T12:48:18.030Z,2413.13
2019-04-21T12:49:17.903Z,2756.25
2019-04-21T12:50:17.873Z,2210.63
2019-04-21T12:51:17.677Z,2469.38
2019-04-21T12:52:17.784Z,2700.00
2019-04-21T12:53:19.267Z,2795.63
2019-04-21T12:54:17.744Z,2750.63
2019-04-21T12:55:17.820Z,2705.63
2019-04-21T12:56:17.845Z,2683.13
2019-04-21T12:57:19.156Z,2874.38
2019-04-21T12:58:19.289Z,2896.88
2019-04-21T12:59:19.100Z,2874.38
2019-04-21T13:00:18.487Z,3020.63
2019-04-21T13:01:18.932Z,3093.75
2019-04-21T13:02:18.200Z,3009.38
2019-04-21T13:03:20.477Z,3121.88
2019-04-21T13:04:19.672Z,2975.63
2019-04-21T13:05:18.316Z,2936.25
2019-04-21T13:06:19.282Z,3065.63
2019-04-21T13:07:19.419Z,2925.00
2019-04-21T13:08:19.750Z,2896.88
2019-04-21T13:09:20.381Z,2874.38
2019-04-21T13:10:18.583Z,2891.25
2019-04-21T13:11:19.218Z,2941.88
2019-04-21T13:12:19.400Z,2784.38
2019-04-21T13:13:19.821Z,2711.25
2019-04-21T13:14:19.906Z,2728.13
2019-04-21T13:15:19.850Z,2711.25
2019-04-21T13:16:19.230Z,2829.38
2019-04-21T13:17:19.480Z,2705.63
2019-04-21T13:18:19.010Z,2700.00
2019-04-21T13:19:19.064Z,2716.88
2019-04-21T13:20:19.245Z,2694.38
2019-04-21T13:21:20.214Z,2598.75
2019-04-21T13:22:19.241Z,2548.13
2019-04-21T13:23:19.279Z,2576.25
2019-04-21T13:24:19.957Z,2610.00
2019-04-21T13:25:20.109Z,2497.50
2019-04-21T13:26:30.580Z,2688.75
2019-04-21T13:27:20.657Z,2711.25
2019-04-21T13:28:20.761Z,2739.38
2019-04-21T13:29:20.512Z,2840.63
2019-04-21T13:30:20.156Z,2621.25
2019-04-21T13:31:20.252Z,2683.13
2019-04-21T13:32:20.454Z,2598.75
2019-04-21T13:33:20.990Z,2880.00
2019-04-21T13:34:20.043Z,2750.63
2019-04-21T13:35:21.218Z,2773.13
2019-04-21T13:36:21.294Z,2548.13
2019-04-21T13:37:21.411Z,2694.38
2019-04-21T13:38:29.037Z,2261.25
2019-04-21T13:40:38.879Z,2542.50
2019-04-21T13:41:33.841Z,2345.63
2019-04-21T13:42:26.734Z,2340.00
2019-04-21T13:43:21.081Z,2469.38
2019-04-21T13:44:21.318Z,2373.75
2019-04-21T13:45:21.896Z,2266.88
2019-04-21T13:46:20.707Z,2199.38
2019-04-21T13:47:20.860Z,2233.13
2019-04-21T13:48:22.267Z,2103.75
2019-04-21T13:49:21.162Z,2008.13
2019-04-21T13:50:21.460Z,2002.50
2019-04-21T13:51:20.791Z,2053.13
2019-04-21T13:52:20.847Z,2081.25
2019-04-21T13:53:20.968Z,2013.75
2019-04-21T13:54:21.915Z,1968.75
2019-04-21T13:55:21.363Z,1901.25
2019-04-21T13:56:22.588Z,1878.75
2019-04-21T13:57:21.114Z,2030.63
2019-04-21T13:58:22.113Z,1980.00
2019-04-21T13:59:22.448Z,1980.00
2019-04-21T14:00:21.552Z,1873.13
2019-04-21T14:01:21.471Z,1850.63
2019-04-21T14:02:22.649Z,1721.25
2019-04-21T14:03:23.410Z,1603.13
2019-04-21T14:04:21.486Z,1541.25
2019-04-21T14:05:22.396Z,1541.25
2019-04-21T14:06:22.555Z,1698.75
2019-04-21T14:07:21.640Z,1580.63
2019-04-21T14:08:23.110Z,1591.88
2019-04-21T14:09:21.903Z,1513.13
2019-04-21T14:10:21.955Z,1631.25
2019-04-21T14:11:22.990Z,1648.13
2019-04-21T14:12:23.366Z,1501.88
2019-04-21T14:13:22.512Z,1698.75
2019-04-21T14:14:22.005Z,1828.13
2019-04-21T14:15:22.256Z,1867.50
2019-04-21T14:16:22.295Z,1800.00
2019-04-21T14:17:22.504Z,1963.13
2019-04-21T14:18:22.682Z,1473.75
2019-04-21T14:19:23.237Z,1417.50
2019-04-21T14:20:22.308Z,1276.88
2019-04-21T14:21:23.207Z,1316.25
2019-04-21T14:22:22.410Z,1333.13
2019-04-21T14:23:31.764Z,1383.75
2019-04-21T14:24:22.675Z,1513.13
2019-04-21T14:25:23.885Z,1400.63
2019-04-21T14:26:22.624Z,1473.75
2019-04-21T14:27:23.888Z,1490.63
2019-04-21T14:28:23.972Z,1867.50
2019-04-21T14:29:23.844Z,2154.38
2019-04-21T14:30:22.864Z,2025.00
2019-04-21T14:31:24.087Z,1777.50
2019-04-21T14:32:24.208Z,1996.88
2019-04-21T14:33:23.750Z,2115.00
2019-04-21T14:34:23.892Z,2250.00
2019-04-21T14:35:23.068Z,2317.50
2019-04-21T14:36:23.110Z,2272.50
2019-04-21T14:37:24.570Z,2092.50
2019-04-21T14:38:24.801Z,2143.13
2019-04-21T14:39:23.259Z,2064.38
2019-04-21T14:40:27.286Z,2092.50